Time;durP1;ratioP1;P1;durP2;ratioP2;P2;SDS_P1;SDS_P2;PMS_P1;PMS_P2;Temp;Humidity;BMP_temperature;BMP_pressure;BME280_temperature;BME280_humidity;BME280_pressure;Samples;Min_cycle;Max_cycle;Signal;HPM_P1;HPM_P2
2021/08/23 00:01:42;;;;;;;0.60;0.60;;;20.20;71.70;;;;;;10469296;28;20196;-53
2021/08/23 00:07:04;;;;;;;0.80;0.80;;;20.20;72.40;;;;;;10483229;28;20220;-48
2021/08/23 00:12:29;;;;;;;0.93;0.93;;;20.20;71.40;;;;;;10455881;28;20280;-52
2021/08/23 00:17:53;;;;;;;0.80;0.80;;;20.20;71.30;;;;;;10436712;28;20236;-48
2021/08/23 00:23:16;;;;;;;0.87;0.83;;;20.20;72.00;;;;;;10462915;28;20672;-55
2021/08/23 00:28:38;;;;;;;0.63;0.63;;;20.10;72.30;;;;;;10457246;28;20213;-54
2021/08/23 00:34:02;;;;;;;0.70;0.70;;;20.20;71.00;;;;;;10456886;28;20212;-48
2021/08/23 00:39:24;;;;;;;0.70;0.70;;;20.20;71.60;;;;;;10470587;28;20227;-52
2021/08/23 00:44:46;;;;;;;0.87;0.77;;;20.20;72.30;;;;;;10495279;28;20196;-52
2021/08/23 00:50:11;;;;;;;0.90;0.80;;;20.20;71.80;;;;;;10416684;28;20253;-48
2021/08/23 00:55:33;;;;;;;1.60;0.83;;;20.20;71.30;;;;;;10441344;28;20568;-54
2021/08/23 01:01:00;;;;;;;0.70;0.70;;;20.20;72.00;;;;;;10460618;28;20212;-56
2021/08/23 01:06:24;;;;;;;0.80;0.80;;;20.10;72.40;;;;;;10489797;28;20182;-48
2021/08/23 01:11:51;;;;;;;1.00;0.73;;;20.10;71.30;;;;;;10455765;28;20189;-49
2021/08/23 01:17:13;;;;;;;0.93;0.90;;;20.20;71.20;;;;;;10465401;28;20216;-56
2021/08/23 01:22:42;;;;;;;0.70;0.70;;;20.10;71.90;;;;;;10494250;28;20225;-53
2021/08/23 01:28:11;;;;;;;0.90;0.90;;;20.10;72.10;;;;;;10494594;28;20200;-55
2021/08/23 01:33:34;;;;;;;0.70;0.70;;;20.20;70.90;;;;;;10479969;28;20221;-53
2021/08/23 01:38:57;;;;;;;0.80;0.80;;;20.20;71.60;;;;;;10468829;28;20217;-48
2021/08/23 01:44:20;;;;;;;0.80;0.80;;;20.10;72.20;;;;;;10491797;28;20549;-53
2021/08/23 01:49:43;;;;;;;0.80;0.80;;;20.10;71.70;;;;;;10465091;28;20592;-55
2021/08/23 01:55:06;;;;;;;1.07;1.00;;;20.20;71.10;;;;;;10427336;28;20212;-54
2021/08/23 02:00:28;;;;;;;0.87;0.87;;;20.20;71.90;;;;;;10452959;28;20227;-55
2021/08/23 02:05:52;;;;;;;1.10;1.00;;;20.10;72.40;;;;;;10474081;28;20200;-50
2021/08/23 02:11:14;;;;;;;0.97;0.87;;;20.20;71.30;;;;;;10468353;28;20223;-47
2021/08/23 02:16:39;;;;;;;1.13;0.80;;;20.20;71.10;;;;;;10442764;28;20216;-48
2021/08/23 02:22:03;;;;;;;0.70;0.70;;;20.10;71.80;;;;;;10495259;22;20286;-56
2021/08/23 02:27:25;;;;;;;1.10;1.00;;;20.10;72.20;;;;;;10470970;28;20277;-55
2021/08/23 02:32:47;;;;;;;0.70;0.70;;;20.20;71.10;;;;;;10464755;28;20228;-55
2021/08/23 02:38:11;;;;;;;0.80;0.80;;;20.20;71.30;;;;;;10453151;28;20224;-56
2021/08/23 02:43:33;;;;;;;1.40;0.80;;;20.10;71.90;;;;;;10464458;28;20212;-55
2021/08/23 02:48:55;;;;;;;1.00;0.90;;;20.10;71.90;;;;;;10477787;28;20216;-57
2021/08/23 02:54:19;;;;;;;0.73;0.73;;;20.20;71.00;;;;;;10471412;28;20201;-56
2021/08/23 02:59:41;;;;;;;0.97;0.83;;;20.10;71.90;;;;;;10428990;28;20218;-56
2021/08/23 03:05:03;;;;;;;0.70;0.70;;;20.10;72.40;;;;;;10488442;28;20189;-55
2021/08/23 03:10:27;;;;;;;0.80;0.80;;;20.10;71.40;;;;;;10417866;28;20217;-57
2021/08/23 03:15:50;;;;;;;1.00;0.90;;;20.20;71.00;;;;;;10436356;28;20209;-52
2021/08/23 03:21:12;;;;;;;1.00;0.93;;;20.10;71.70;;;;;;10417920;28;20221;-56
2021/08/23 03:26:35;;;;;;;0.93;0.90;;;20.10;72.20;;;;;;10449861;28;20184;-57
2021/08/23 03:31:57;;;;;;;0.70;0.70;;;20.10;71.20;;;;;;10495523;28;20227;-55
2021/08/23 03:37:19;;;;;;;0.80;0.80;;;20.20;71.30;;;;;;10499846;28;20220;-57
2021/08/23 03:42:43;;;;;;;0.70;0.70;;;20.10;71.80;;;;;;10497660;28;20196;-56
2021/08/23 03:48:05;;;;;;;1.07;0.80;;;20.10;72.10;;;;;;10497776;28;20714;-57
2021/08/23 03:53:28;;;;;;;0.77;0.77;;;20.10;70.90;;;;;;10485067;28;20204;-56
2021/08/23 03:58:51;;;;;;;1.10;1.00;;;20.10;71.90;;;;;;10441997;28;20272;-57
2021/08/23 04:04:13;;;;;;;0.90;0.87;;;20.10;72.30;;;;;;10477264;28;20196;-55
2021/08/23 04:09:35;;;;;;;0.70;0.70;;;20.10;71.50;;;;;;10466640;28;20221;-50
2021/08/23 04:15:00;;;;;;;0.87;0.87;;;20.20;71.60;;;;;;10463539;28;20224;-58
2021/08/23 04:20:22;;;;;;;1.13;1.03;;;20.10;72.30;;;;;;10426050;28;20228;-52
2021/08/23 04:25:44;;;;;;;0.73;0.60;;;20.10;72.20;;;;;;10435171;28;20212;-54
2021/08/23 04:31:07;;;;;;;0.87;0.87;;;20.20;71.00;;;;;;10473702;28;20213;-52
2021/08/23 04:36:29;;;;;;;1.00;0.80;;;20.20;71.80;;;;;;10467370;28;20213;-56
2021/08/23 04:41:51;;;;;;;0.90;0.70;;;20.10;72.30;;;;;;10486601;28;20806;-54
2021/08/23 04:47:15;;;;;;;0.93;0.83;;;20.20;71.90;;;;;;10464406;28;20431;-52
2021/08/23 04:52:41;;;;;;;0.70;0.70;;;20.60;70.00;;;;;;10448539;28;20193;-54
2021/08/23 04:58:03;;;;;;;0.87;0.77;;;20.40;71.30;;;;;;10456139;28;20205;-57
2021/08/23 05:03:27;;;;;;;1.10;0.80;;;20.20;71.90;;;;;;10455089;28;20204;-55
2021/08/23 05:08:49;;;;;;;1.00;0.90;;;20.30;70.80;;;;;;10455170;28;20217;-49
2021/08/23 05:14:11;;;;;;;0.70;0.70;;;20.20;71.50;;;;;;10465131;28;20695;-52
2021/08/23 05:19:34;;;;;;;0.70;0.70;;;20.20;72.20;;;;;;10482086;28;20228;-52
2021/08/23 05:24:56;;;;;;;1.00;0.90;;;20.20;71.90;;;;;;10460359;28;20189;-54
2021/08/23 05:30:19;;;;;;;0.90;0.90;;;20.20;71.50;;;;;;10459697;28;20213;-52
2021/08/23 05:35:42;;;;;;;1.30;0.90;;;20.20;72.00;;;;;;10452260;28;20216;-52
2021/08/23 05:41:04;;;;;;;0.87;0.80;;;20.20;72.30;;;;;;10483427;28;20216;-52
2021/08/23 05:46:26;;;;;;;0.97;0.87;;;20.30;71.00;;;;;;10491821;28;20200;-54
2021/08/23 05:51:50;;;;;;;0.70;0.70;;;20.30;72.00;;;;;;10491360;28;20222;-53
2021/08/23 05:57:12;;;;;;;1.13;1.00;;;20.20;72.40;;;;;;10478248;28;20702;-55
2021/08/23 06:02:34;;;;;;;0.70;0.70;;;20.20;71.80;;;;;;10487043;28;20805;-55
2021/08/23 06:07:58;;;;;;;1.50;0.80;;;20.30;71.50;;;;;;10461119;28;20693;-53
2021/08/23 06:13:20;;;;;;;0.77;0.77;;;20.20;72.00;;;;;;10459735;28;20200;-52
2021/08/23 06:18:42;;;;;;;0.80;0.70;;;20.20;72.50;;;;;;10462626;28;20220;-54
2021/08/23 06:24:06;;;;;;;0.60;0.60;;;20.20;71.40;;;;;;10435749;28;20216;-59
2021/08/23 06:29:28;;;;;;;0.70;0.70;;;20.20;71.70;;;;;;10446508;28;20833;-59
2021/08/23 06:34:50;;;;;;;1.93;0.90;;;20.20;72.40;;;;;;10457748;28;20212;-58
2021/08/23 06:40:14;;;;;;;0.60;0.60;;;20.20;72.10;;;;;;10474833;28;20248;-62
2021/08/23 06:45:36;;;;;;;0.70;0.63;;;20.20;71.30;;;;;;10492053;28;20189;-63
2021/08/23 06:50:58;;;;;;;1.03;0.70;;;20.20;72.00;;;;;;10448194;28;20594;-60
2021/08/23 06:56:22;;;;;;;0.90;0.83;;;20.10;72.40;;;;;;10464351;28;20626;-60
2021/08/23 07:01:44;;;;;;;0.70;0.70;;;20.20;71.40;;;;;;10440587;28;20240;-62
2021/08/23 07:07:06;;;;;;;0.90;0.60;;;20.20;71.10;;;;;;10445957;28;20208;-61
2021/08/23 07:12:30;;;;;;;0.70;0.70;;;20.20;71.90;;;;;;10451300;28;20224;-60
2021/08/23 07:17:52;;;;;;;1.10;0.60;;;20.20;72.50;;;;;;10438515;28;20222;-61
2021/08/23 07:23:14;;;;;;;0.70;0.67;;;20.20;71.10;;;;;;10456831;28;20192;-62
2021/08/23 07:28:37;;;;;;;1.03;0.90;;;20.20;71.20;;;;;;10456618;28;20209;-61
2021/08/23 07:33:59;;;;;;;0.80;0.70;;;20.20;72.00;;;;;;10478105;28;20200;-60
2021/08/23 07:39:22;;;;;;;0.80;0.80;;;20.20;72.20;;;;;;10495785;28;20274;-61
2021/08/23 07:44:45;;;;;;;1.23;0.60;;;20.20;70.70;;;;;;10484070;28;20614;-61
2021/08/23 07:50:09;;;;;;;0.63;0.63;;;20.20;71.30;;;;;;10451865;28;20591;-61
2021/08/23 07:55:31;;;;;;;1.07;0.70;;;20.10;72.00;;;;;;10457177;28;20233;-62
2021/08/23 08:00:55;;;;;;;0.70;0.70;;;20.10;72.40;;;;;;10457272;28;20259;-62
2021/08/23 08:06:17;;;;;;;0.90;0.80;;;20.10;72.90;;;;;;10454084;28;20197;-62
2021/08/23 08:11:39;;;;;;;1.07;0.80;;;20.10;73.50;;;;;;10443784;28;20243;-63
2021/08/23 08:17:03;;;;;;;0.60;0.60;;;20.00;73.80;;;;;;10456164;28;20312;-62
2021/08/23 08:22:25;;;;;;;0.70;0.70;;;20.00;74.00;;;;;;10494159;22;20710;-64
2021/08/23 08:27:47;;;;;;;0.93;0.60;;;20.10;74.30;;;;;;10495361;28;20583;-62
2021/08/23 08:33:11;;;;;;;0.67;0.67;;;20.00;74.40;;;;;;10455882;28;20228;-64
2021/08/23 08:38:33;;;;;;;0.70;0.67;;;20.00;74.50;;;;;;10456593;28;20225;-61
2021/08/23 08:43:55;;;;;;;1.07;0.80;;;20.00;74.70;;;;;;10482362;28;20200;-62
2021/08/23 08:49:19;;;;;;;0.87;0.80;;;20.00;74.80;;;;;;10496797;28;20213;-62
2021/08/23 08:54:43;;;;;;;0.63;0.63;;;20.00;74.90;;;;;;10520656;28;20707;-62
2021/08/23 09:00:06;;;;;;;0.70;0.70;;;20.00;75.00;;;;;;10508582;28;20242;-64
2021/08/23 09:05:38;;;;;;;1.17;0.80;;;20.00;75.00;;;;;;10524201;28;20625;-64
2021/08/23 09:11:10;;;;;;;1.63;0.70;;;20.00;75.00;;;;;;10468976;28;20279;-66
2021/08/23 09:16:33;;;;;;;0.67;0.60;;;20.00;75.10;;;;;;10485167;28;20295;-67
2021/08/23 09:22:02;;;;;;;0.77;0.70;;;20.00;75.10;;;;;;10454999;28;20228;-64
2021/08/23 09:27:24;;;;;;;1.23;0.70;;;20.00;74.80;;;;;;10453188;28;20190;-65
2021/08/23 09:32:49;;;;;;;0.93;0.80;;;20.00;74.80;;;;;;10452732;28;20224;-61
2021/08/23 09:38:13;;;;;;;1.33;0.77;;;20.00;74.90;;;;;;10452442;28;20217;-66
2021/08/23 09:43:36;;;;;;;1.00;0.90;;;20.00;74.90;;;;;;10488187;28;20196;-64
2021/08/23 09:48:58;;;;;;;1.40;0.67;;;20.00;74.70;;;;;;10492666;28;20591;-65
2021/08/23 09:54:22;;;;;;;1.20;0.83;;;20.00;74.60;;;;;;10503726;28;20212;-64
2021/08/23 09:59:44;;;;;;;0.90;0.70;;;20.00;74.80;;;;;;10513734;28;20207;-64
2021/08/23 10:05:07;;;;;;;4.17;1.03;;;20.00;74.70;;;;;;10485176;28;20193;-64
2021/08/23 10:10:31;;;;;;;1.00;0.70;;;20.00;74.70;;;;;;10452010;28;20213;-64
2021/08/23 10:15:53;;;;;;;0.60;0.60;;;20.00;74.50;;;;;;10469883;28;20221;-62
2021/08/23 10:21:16;;;;;;;0.73;0.70;;;20.00;74.30;;;;;;10474315;28;20235;-64
2021/08/23 10:26:44;;;;;;;0.60;0.60;;;20.00;73.90;;;;;;10493285;28;20192;-64
2021/08/23 10:32:09;;;;;;;0.80;0.77;;;20.00;73.90;;;;;;10492080;28;20212;-63
2021/08/23 10:37:31;;;;;;;0.90;0.83;;;20.00;73.60;;;;;;10454789;28;20209;-62
2021/08/23 10:42:55;;;;;;;1.50;0.90;;;20.00;73.10;;;;;;10450777;28;20221;-64
2021/08/23 10:48:19;;;;;;;1.83;0.83;;;20.00;73.40;;;;;;10451115;28;20201;-65
2021/08/23 10:53:47;;;;;;;5.97;1.00;;;20.00;72.70;;;;;;10483506;28;20196;-63
2021/08/23 10:59:16;;;;;;;1.33;0.80;;;20.00;72.90;;;;;;10528933;28;20215;-63
2021/08/23 11:04:41;;;;;;;1.07;0.90;;;19.90;72.40;;;;;;10533995;28;20325;-64
2021/08/23 11:10:07;;;;;;;1.27;0.73;;;19.90;72.00;;;;;;10528407;28;20219;-63
2021/08/23 11:15:31;;;;;;;1.10;0.90;;;19.90;71.80;;;;;;10475827;28;20695;-65
2021/08/23 11:20:55;;;;;;;0.90;0.80;;;19.90;71.80;;;;;;10491897;28;20228;-64
2021/08/23 11:26:22;;;;;;;1.27;1.07;;;19.90;71.40;;;;;;10479811;28;20197;-62
2021/08/23 11:31:55;;;;;;;1.67;1.07;;;19.90;71.00;;;;;;10450862;28;20220;-65
2021/08/23 11:37:19;;;;;;;1.83;1.43;;;19.90;71.10;;;;;;10450333;28;20711;-62
2021/08/23 11:42:41;;;;;;;1.83;1.10;;;19.90;70.60;;;;;;10450105;28;20727;-64
2021/08/23 11:48:05;;;;;;;1.87;1.30;;;19.90;70.80;;;;;;10454453;28;20200;-62
2021/08/23 11:53:31;;;;;;;2.20;1.40;;;19.90;70.60;;;;;;10484299;28;20705;-66
2021/08/23 11:58:53;;;;;;;1.40;1.23;;;20.00;69.70;;;;;;10515207;28;20323;-55
2021/08/23 12:04:24;;;;;;;1.93;1.30;;;20.00;70.00;;;;;;10507266;28;20208;-61
2021/08/23 12:09:46;;;;;;;1.93;1.30;;;20.00;70.00;;;;;;10500376;28;20572;-65
2021/08/23 12:15:11;;;;;;;2.33;1.53;;;20.00;70.10;;;;;;10469891;28;20193;-64
2021/08/23 12:20:34;;;;;;;2.00;1.40;;;20.00;70.40;;;;;;10456161;28;20229;-69
2021/08/23 12:26:05;;;;;;;2.30;1.20;;;20.00;69.90;;;;;;10455815;28;20196;-69
2021/08/23 12:31:28;;;;;;;1.43;1.30;;;20.00;68.00;;;;;;10455735;28;20205;-69
2021/08/23 12:36:52;;;;;;;1.93;1.10;;;20.00;68.90;;;;;;10456379;28;20219;-69
2021/08/23 12:42:20;;;;;;;3.27;1.70;;;20.00;69.10;;;;;;10453943;28;20427;-68
2021/08/23 12:47:42;;;;;;;3.10;1.43;;;20.50;65.80;;;;;;10455843;28;20197;-62
2021/08/23 12:53:06;;;;;;;2.03;1.10;;;20.30;66.80;;;;;;10503118;28;20227;-60
2021/08/23 12:58:28;;;;;;;1.90;1.47;;;20.10;68.80;;;;;;10518669;28;20635;-63
2021/08/23 13:03:50;;;;;;;1.80;1.30;;;20.10;69.40;;;;;;10492887;28;20200;-60
2021/08/23 13:09:14;;;;;;;10.17;1.33;;;20.00;69.80;;;;;;10493261;28;20220;-62
2021/08/23 13:14:36;;;;;;;1.50;1.10;;;20.00;69.70;;;;;;10452802;28;20200;-63
2021/08/23 13:19:58;;;;;;;1.47;1.00;;;20.00;70.10;;;;;;10449454;28;20221;-66
2021/08/23 13:25:21;;;;;;;1.30;1.20;;;20.00;70.20;;;;;;10451478;28;20208;-62
2021/08/23 13:30:44;;;;;;;1.63;0.93;;;19.90;70.10;;;;;;10461953;28;20695;-62
2021/08/23 13:36:06;;;;;;;1.23;1.00;;;19.90;69.70;;;;;;10493390;28;20582;-63
2021/08/23 13:41:30;;;;;;;1.87;1.20;;;19.90;69.80;;;;;;10489323;28;20278;-63
2021/08/23 13:46:53;;;;;;;1.40;1.20;;;19.90;69.20;;;;;;10489016;28;20196;-63
2021/08/23 13:52:15;;;;;;;3.33;1.20;;;19.90;69.10;;;;;;10467624;28;20218;-63
2021/08/23 13:57:39;;;;;;;2.47;1.20;;;19.90;69.40;;;;;;10522290;28;20306;-64
2021/08/23 14:03:03;;;;;;;1.13;1.03;;;19.90;69.00;;;;;;10455918;28;20229;-65
2021/08/23 14:08:26;;;;;;;1.43;1.03;;;19.90;68.70;;;;;;10475041;28;20279;-63
2021/08/23 14:13:50;;;;;;;1.33;1.10;;;19.90;68.70;;;;;;10480465;28;20203;-61
2021/08/23 14:19:12;;;;;;;1.50;1.00;;;19.90;68.50;;;;;;10487552;28;20621;-64
2021/08/23 14:24:34;;;;;;;2.33;0.87;;;19.90;68.00;;;;;;10488160;28;20214;-62
2021/08/23 14:29:58;;;;;;;2.43;0.83;;;19.90;68.30;;;;;;10491140;28;20223;-63
2021/08/23 14:35:20;;;;;;;1.67;1.10;;;19.90;68.30;;;;;;10446769;28;20188;-62
2021/08/23 14:40:43;;;;;;;2.07;1.00;;;19.90;68.10;;;;;;10445357;28;20213;-63
2021/08/23 14:46:06;;;;;;;1.70;1.00;;;19.90;68.70;;;;;;10445623;28;20738;-61
2021/08/23 14:51:28;;;;;;;1.30;1.00;;;19.90;68.40;;;;;;10467303;28;20227;-61
2021/08/23 14:56:50;;;;;;;1.37;1.10;;;19.90;68.80;;;;;;10445532;28;20221;-57
2021/08/23 15:02:14;;;;;;;2.70;1.20;;;19.90;69.20;;;;;;10446676;28;20223;-58
2021/08/23 15:07:36;;;;;;;1.97;1.10;;;19.90;68.80;;;;;;10446433;28;20255;-59
2021/08/23 15:12:58;;;;;;;1.13;0.93;;;19.90;69.20;;;;;;10445528;28;20217;-59
2021/08/23 15:18:22;;;;;;;1.10;0.97;;;19.90;69.30;;;;;;10453429;28;20216;-63
2021/08/23 15:23:44;;;;;;;2.30;1.30;;;19.90;69.60;;;;;;10492043;28;20189;-63
2021/08/23 15:29:06;;;;;;;3.00;1.20;;;19.90;69.00;;;;;;10494519;28;20220;-64
2021/08/23 15:34:30;;;;;;;1.90;0.90;;;19.90;68.70;;;;;;10494368;28;20188;-62
2021/08/23 15:39:52;;;;;;;1.33;0.80;;;20.00;69.50;;;;;;10486749;28;20217;-61
2021/08/23 15:45:14;;;;;;;1.77;0.90;;;19.90;69.80;;;;;;10478653;28;20203;-65
2021/08/23 15:50:38;;;;;;;0.80;0.80;;;19.90;69.80;;;;;;10493269;28;20212;-60
2021/08/23 15:56:00;;;;;;;1.60;1.00;;;19.90;68.70;;;;;;10500656;28;20189;-61
2021/08/23 16:01:23;;;;;;;1.73;0.93;;;19.90;68.10;;;;;;10526573;28;20222;-57
2021/08/23 16:06:46;;;;;;;0.87;0.80;;;19.90;68.80;;;;;;10494093;28;20203;-62
2021/08/23 16:12:09;;;;;;;0.73;0.70;;;19.90;69.40;;;;;;10524398;22;20231;-59
2021/08/23 16:17:31;;;;;;;1.17;0.90;;;19.90;69.30;;;;;;10540119;28;20631;-56
2021/08/23 16:22:55;;;;;;;1.10;0.90;;;19.90;69.30;;;;;;10497033;28;20220;-58
2021/08/23 16:28:17;;;;;;;1.30;0.80;;;19.90;68.70;;;;;;10498120;28;20192;-59
2021/08/23 16:33:39;;;;;;;1.50;0.87;;;19.90;68.70;;;;;;10497227;28;20200;-55
2021/08/23 16:39:03;;;;;;;1.63;0.80;;;19.90;68.30;;;;;;10497763;28;20212;-54
2021/08/23 16:44:27;;;;;;;1.50;0.83;;;19.90;67.20;;;;;;10535092;28;20199;-57
2021/08/23 16:49:49;;;;;;;2.33;1.00;;;19.90;68.50;;;;;;10538414;28;20249;-58
2021/08/23 16:55:14;;;;;;;1.50;0.73;;;19.90;68.90;;;;;;10539372;28;20191;-58
2021/08/23 17:00:36;;;;;;;1.37;0.83;;;19.90;69.00;;;;;;10507333;28;20239;-59
2021/08/23 17:05:58;;;;;;;1.30;0.93;;;19.90;69.30;;;;;;10496781;28;20196;-58
2021/08/23 17:11:22;;;;;;;0.93;0.80;;;19.80;69.50;;;;;;10497803;28;20587;-59
2021/08/23 17:16:44;;;;;;;1.07;0.93;;;19.90;69.70;;;;;;10496430;28;20223;-59
2021/08/23 17:22:06;;;;;;;0.90;0.73;;;19.90;68.80;;;;;;10496020;28;20223;-57
2021/08/23 17:27:30;;;;;;;2.47;0.80;;;19.90;68.60;;;;;;10495948;28;20200;-59
2021/08/23 17:32:52;;;;;;;1.20;0.80;;;19.90;68.70;;;;;;10492040;28;20213;-58
2021/08/23 17:38:14;;;;;;;0.97;0.80;;;19.90;68.80;;;;;;10491584;28;20227;-57
2021/08/23 17:43:38;;;;;;;1.03;0.73;;;19.90;69.20;;;;;;10499725;28;20196;-59
2021/08/23 17:49:00;;;;;;;0.73;0.70;;;19.90;69.30;;;;;;10491542;28;20227;-60
2021/08/23 17:54:22;;;;;;;0.80;0.67;;;19.90;69.50;;;;;;10514961;28;20191;-60
2021/08/23 17:59:45;;;;;;;1.07;0.70;;;19.90;69.40;;;;;;10510736;28;20224;-60
2021/08/23 18:05:09;;;;;;;0.80;0.70;;;19.90;69.20;;;;;;10465791;28;20206;-61
2021/08/23 18:10:31;;;;;;;0.70;0.67;;;19.90;69.20;;;;;;10489228;28;20602;-59
2021/08/23 18:15:54;;;;;;;1.40;0.90;;;19.90;69.20;;;;;;10494337;28;20199;-60
2021/08/23 18:21:18;;;;;;;1.07;0.73;;;19.90;69.30;;;;;;10493241;28;20215;-59
2021/08/23 18:26:40;;;;;;;3.50;0.70;;;19.90;70.10;;;;;;10493033;28;20684;-54
2021/08/23 18:32:04;;;;;;;1.00;0.70;;;19.90;69.70;;;;;;10504509;28;20631;-60
2021/08/23 18:37:26;;;;;;;0.73;0.60;;;19.90;70.20;;;;;;10487658;28;20220;-58
2021/08/23 18:42:48;;;;;;;1.40;0.97;;;19.90;70.40;;;;;;10498085;28;20226;-56
2021/08/23 18:48:12;;;;;;;0.73;0.73;;;19.90;70.50;;;;;;10492274;28;20207;-60
2021/08/23 18:53:34;;;;;;;1.53;0.83;;;19.90;70.60;;;;;;10500392;28;20582;-61
2021/08/23 18:58:56;;;;;;;1.03;0.70;;;19.90;70.70;;;;;;10517448;28;20216;-62
2021/08/23 19:04:20;;;;;;;1.00;0.73;;;19.90;70.90;;;;;;10495671;28;20690;-61
2021/08/23 19:09:42;;;;;;;1.37;1.07;;;19.90;71.30;;;;;;10497819;28;20354;-61
2021/08/23 19:15:06;;;;;;;0.50;0.47;;;19.90;71.20;;;;;;10499055;28;20196;-61
2021/08/23 19:20:30;;;;;;;0.90;0.80;;;19.90;71.40;;;;;;10499609;28;20223;-59
2021/08/23 19:25:52;;;;;;;0.87;0.60;;;20.00;72.00;;;;;;10497585;28;20200;-62
2021/08/23 19:31:14;;;;;;;0.70;0.60;;;19.90;71.50;;;;;;10497845;28;20208;-60
2021/08/23 19:36:38;;;;;;;1.00;0.70;;;19.90;71.50;;;;;;10499001;28;20189;-62
2021/08/23 19:42:00;;;;;;;0.80;0.50;;;19.90;71.60;;;;;;10499467;28;20212;-61
2021/08/23 19:47:22;;;;;;;1.27;0.60;;;20.00;71.80;;;;;;10496722;28;20188;-61
2021/08/23 19:52:45;;;;;;;1.10;0.80;;;19.90;71.80;;;;;;10498144;28;20215;-60
2021/08/23 19:58:09;;;;;;;0.70;0.70;;;19.90;71.90;;;;;;10500960;28;20625;-60
2021/08/23 20:03:31;;;;;;;0.60;0.60;;;19.90;72.00;;;;;;10498573;28;20224;-59
2021/08/23 20:08:53;;;;;;;1.00;0.73;;;19.90;72.00;;;;;;10494267;28;20220;-60
2021/08/23 20:14:18;;;;;;;0.90;0.70;;;19.90;72.20;;;;;;10496032;28;20193;-60
2021/08/23 20:19:40;;;;;;;0.87;0.70;;;20.00;72.30;;;;;;10498507;28;20219;-61
2021/08/23 20:25:03;;;;;;;1.07;0.70;;;19.90;72.30;;;;;;10498003;28;20196;-60
2021/08/23 20:30:27;;;;;;;0.90;0.70;;;20.00;72.40;;;;;;10497210;28;20212;-61
2021/08/23 20:35:50;;;;;;;0.80;0.77;;;20.00;72.50;;;;;;10496751;28;20199;-60
2021/08/23 20:41:13;;;;;;;1.10;0.70;;;20.00;72.60;;;;;;10494935;28;20707;-60
2021/08/23 20:46:39;;;;;;;0.77;0.73;;;20.00;72.60;;;;;;10494956;28;20197;-60
2021/08/23 20:52:01;;;;;;;1.33;0.70;;;19.90;72.70;;;;;;10496596;28;20628;-60
2021/08/23 20:57:24;;;;;;;1.00;0.70;;;19.90;72.70;;;;;;10533961;28;20294;-61
2021/08/23 21:02:47;;;;;;;0.83;0.70;;;19.90;72.70;;;;;;10497195;28;20591;-61
2021/08/23 21:08:09;;;;;;;1.10;0.90;;;20.00;72.90;;;;;;10496463;28;20196;-60
2021/08/23 21:13:31;;;;;;;1.00;0.90;;;20.00;72.90;;;;;;10482317;28;20200;-60
2021/08/23 21:18:55;;;;;;;0.83;0.57;;;19.90;72.90;;;;;;10495081;28;20224;-60
2021/08/23 21:24:17;;;;;;;0.50;0.50;;;20.00;73.10;;;;;;10495806;28;20193;-60
2021/08/23 21:29:39;;;;;;;1.07;0.77;;;19.90;73.10;;;;;;10495142;28;20216;-60
2021/08/23 21:35:03;;;;;;;0.80;0.70;;;19.90;73.10;;;;;;10496115;28;20196;-60
2021/08/23 21:40:27;;;;;;;1.00;0.50;;;20.00;73.30;;;;;;10495199;28;20224;-60
2021/08/23 21:45:49;;;;;;;0.80;0.77;;;19.90;73.20;;;;;;10495436;28;20698;-60
2021/08/23 21:51:13;;;;;;;0.80;0.60;;;19.90;73.30;;;;;;10494503;28;20216;-60
2021/08/23 21:56:35;;;;;;;0.70;0.63;;;19.90;73.30;;;;;;10517629;28;20211;-60
2021/08/23 22:01:59;;;;;;;1.07;0.70;;;19.90;73.40;;;;;;10473185;28;20228;-61
2021/08/23 22:07:22;;;;;;;0.80;0.80;;;19.90;73.50;;;;;;10494057;28;20200;-61
2021/08/23 22:12:45;;;;;;;0.83;0.60;;;20.00;73.60;;;;;;10485601;22;20233;-62
2021/08/23 22:18:07;;;;;;;0.60;0.60;;;19.90;73.50;;;;;;10490780;28;20223;-62
2021/08/23 22:23:31;;;;;;;0.80;0.70;;;19.90;73.60;;;;;;10493667;28;20220;-62
2021/08/23 22:28:53;;;;;;;1.13;1.00;;;19.90;73.60;;;;;;10493442;28;20192;-63
2021/08/23 22:34:15;;;;;;;0.90;0.80;;;19.90;73.70;;;;;;10491927;28;20196;-62
2021/08/23 22:39:39;;;;;;;2.07;0.87;;;19.90;73.70;;;;;;10493015;28;20227;-61
2021/08/23 22:45:01;;;;;;;0.97;0.70;;;19.90;73.70;;;;;;10492533;28;20717;-58
2021/08/23 22:50:24;;;;;;;1.83;1.00;;;19.90;73.80;;;;;;10493059;28;20235;-62
2021/08/23 22:55:47;;;;;;;0.73;0.70;;;19.90;73.80;;;;;;10526330;28;20575;-62
2021/08/23 23:01:10;;;;;;;0.80;0.63;;;19.90;73.90;;;;;;10497660;28;20227;-62
2021/08/23 23:06:33;;;;;;;0.90;0.70;;;19.90;73.90;;;;;;10492790;28;20192;-61
2021/08/23 23:11:56;;;;;;;0.57;0.57;;;19.90;73.90;;;;;;10492190;28;20224;-61
2021/08/23 23:17:18;;;;;;;1.20;0.90;;;19.90;73.90;;;;;;10492360;28;20200;-61
2021/08/23 23:22:41;;;;;;;1.07;0.70;;;19.90;74.00;;;;;;10492253;28;20216;-62
2021/08/23 23:28:05;;;;;;;0.77;0.77;;;19.90;74.00;;;;;;10492187;28;20198;-62
2021/08/23 23:33:27;;;;;;;1.20;0.90;;;19.90;74.00;;;;;;10492197;28;20216;-61
2021/08/23 23:38:49;;;;;;;0.90;0.77;;;19.90;74.00;;;;;;10490795;28;20217;-63
2021/08/23 23:44:12;;;;;;;2.10;0.80;;;19.90;74.00;;;;;;10496927;28;20607;-62
2021/08/23 23:49:35;;;;;;;0.70;0.60;;;19.90;74.10;;;;;;10498731;28;20216;-63
2021/08/23 23:54:57;;;;;;;0.70;0.70;;;19.90;74.10;;;;;;10525770;28;20192;-62
